Time;durP1;ratioP1;P1;durP2;ratioP2;P2;SDS_P1;SDS_P2;PMS_P1;PMS_P2;Temp;Humidity;BMP_temperature;BMP_pressure;BME280_temperature;BME280_humidity;BME280_pressure;Samples;Min_cycle;Max_cycle;Signal;HPM_P1;HPM_P2
2024/03/17 00:00:27;;;;;;;27.53;20.93;;;;;;;;;;2081965;28;19920;-84
2024/03/17 00:01:27;;;;;;;34.28;22.20;;;;;;;;;;2068874;28;20083;-84
2024/03/17 00:02:27;;;;;;;;;;;;;;;;;;2081873;28;20080;-84
2024/03/17 00:03:29;;;;;;;34.27;21.27;;;;;;;;;;2081047;28;19924;-84
2024/03/17 00:04:30;;;;;;;28.88;22.23;;;;;;;;;;2080616;28;20038;-84
2024/03/17 00:05:32;;;;;;;;;;;;;;;;;;2084306;28;20362;-85
2024/03/17 00:06:33;;;;;;;37.55;22.70;;;;;;;;;;2082961;28;19975;-84
2024/03/17 00:07:34;;;;;;;;;;;;;;;;;;2083154;28;20073;-85
2024/03/17 00:08:35;;;;;;;33.60;23.40;;;;;;;;;;2081827;28;19925;-83
2024/03/17 00:09:35;;;;;;;;;;;;;;;;;;2081649;28;20420;-85
2024/03/17 00:10:35;;;;;;;33.87;23.37;;;;;;;;;;2080574;28;19917;-84
2024/03/17 00:11:38;;;;;;;30.50;23.30;;;;;;;;;;2081221;28;20127;-84
2024/03/17 00:12:39;;;;;;;36.65;23.27;;;;;;;;;;2081718;28;20041;-84
2024/03/17 00:13:39;;;;;;;;;;;;;;;;;;2082998;28;20825;-84
2024/03/17 00:14:42;;;;;;;32.90;23.37;;;;;;;;;;2080251;28;19932;-84
2024/03/17 00:15:43;;;;;;;31.67;22.73;;;;;;;;;;2081891;28;20073;-84
2024/03/17 00:16:43;;;;;;;;;;;;;;;;;;2081324;28;20133;-84
2024/03/17 00:17:44;;;;;;;31.70;22.07;;;;;;;;;;2082100;28;19921;-82
2024/03/17 00:18:46;;;;;;;;;;;;;;;;;;2082094;28;20068;-83
2024/03/17 00:19:46;;;;;;;35.17;23.38;;;;;;;;;;2079710;28;19932;-84
2024/03/17 00:20:48;;;;;;;;;;;;;;;;;;2083509;28;20044;-84
2024/03/17 00:21:50;;;;;;;;;;;;;;;;;;2081491;28;19990;-84
2024/03/17 00:22:52;;;;;;;28.10;21.33;;;;;;;;;;2080919;28;20334;-83
2024/03/17 00:23:52;;;;;;;30.92;21.65;;;;;;;;;;2081957;28;20049;-84
2024/03/17 00:24:53;;;;;;;;;;;;;;;;;;2085229;28;20124;-83
2024/03/17 00:25:55;;;;;;;28.07;21.70;;;;;;;;;;2081003;28;20020;-84
2024/03/17 00:26:56;;;;;;;29.63;21.73;;;;;;;;;;2082301;28;20115;-84
2024/03/17 00:27:57;;;;;;;;;;;;;;;;;;2082951;28;20460;-85
2024/03/17 00:28:58;;;;;;;27.92;20.88;;;;;;;;;;2079937;28;20795;-84
2024/03/17 00:29:59;;;;;;;;;;;;;;;;;;2084038;28;20085;-84
2024/03/17 00:31:03;;;;;;;29.63;21.45;;;;;;;;;;2080380;28;20476;-85
2024/03/17 00:32:04;;;;;;;27.85;21.25;;;;;;;;;;2083346;28;20045;-85
2024/03/17 00:33:06;;;;;;;28.58;22.05;;;;;;;;;;2081027;28;20053;-85
2024/03/17 00:34:06;;;;;;;30.77;22.77;;;;;;;;;;2080414;28;20049;-84
2024/03/17 00:35:07;;;;;;;;;;;;;;;;;;2083945;28;20054;-84
2024/03/17 00:36:09;;;;;;;31.00;21.40;;;;;;;;;;2084676;28;19928;-85
2024/03/17 00:37:11;;;;;;;33.85;22.15;;;;;;;;;;2081035;28;20118;-84
2024/03/17 00:38:12;;;;;;;27.75;22.02;;;;;;;;;;2082479;28;20049;-84
2024/03/17 00:39:12;;;;;;;;;;;;;;;;;;2080937;28;20137;-85
2024/03/17 00:40:15;;;;;;;28.23;20.97;;;;;;;;;;2081504;28;19925;-84
2024/03/17 00:41:15;;;;;;;27.60;21.70;;;;;;;;;;2084402;28;20065;-85
2024/03/17 00:42:16;;;;;;;;;;;;;;;;;;2082331;28;20069;-84
2024/03/17 00:43:16;;;;;;;25.30;20.27;;;;;;;;;;2079414;28;20399;-84
2024/03/17 00:44:18;;;;;;;;;;;;;;;;;;2082184;28;20103;-84
2024/03/17 00:45:18;;;;;;;29.63;21.05;;;;;;;;;;2080682;28;19931;-84
2024/03/17 00:46:20;;;;;;;;;;;;;;;;;;2080490;28;20111;-85
2024/03/17 00:47:21;;;;;;;27.25;21.42;;;;;;;;;;2081916;28;19920;-84
2024/03/17 00:48:22;;;;;;;;;;;;;;;;;;2081839;28;20052;-84
2024/03/17 00:49:23;;;;;;;32.85;21.33;;;;;;;;;;2079232;28;19955;-85
2024/03/17 00:50:24;;;;;;;;;;;;;;;;;;2082422;28;20064;-84
2024/03/17 00:51:26;;;;;;;32.17;20.37;;;;;;;;;;2080428;28;19921;-83
2024/03/17 00:52:28;;;;;;;29.42;21.70;;;;;;;;;;2080343;28;20493;-86
2024/03/17 00:53:30;;;;;;;26.30;20.75;;;;;;;;;;2082651;28;20052;-86
2024/03/17 00:54:30;;;;;;;32.20;21.70;;;;;;;;;;2079348;28;20055;-84
2024/03/17 00:55:31;;;;;;;;;;;;;;;;;;2081776;28;20056;-85
2024/03/17 00:56:32;;;;;;;31.60;21.60;;;;;;;;;;2081752;28;19924;-84
2024/03/17 00:57:33;;;;;;;32.35;20.95;;;;;;;;;;2082573;28;20061;-84
2024/03/17 00:58:33;;;;;;;;;;;;;;;;;;2081988;28;20061;-84
2024/03/17 00:59:34;;;;;;;29.07;20.40;;;;;;;;;;2081053;28;19960;-84
2024/03/17 01:00:35;;;;;;;;;;;;;;;;;;2080756;28;20053;-84
2024/03/17 01:01:36;;;;;;;26.20;19.33;;;;;;;;;;2080976;28;19927;-84
2024/03/17 01:02:36;;;;;;;;;;;;;;;;;;2081857;28;20512;-84
2024/03/17 01:03:38;;;;;;;30.53;20.77;;;;;;;;;;2083089;28;19916;-84
2024/03/17 01:04:39;;;;;;;29.73;20.88;;;;;;;;;;2083523;28;20049;-84
2024/03/17 01:05:42;;;;;;;30.75;21.02;;;;;;;;;;2081364;28;20084;-85
2024/03/17 01:06:44;;;;;;;24.95;20.83;;;;;;;;;;2080465;28;20042;-85
2024/03/17 01:07:47;;;;;;;29.30;22.02;;;;;;;;;;2080817;28;20045;-84
2024/03/17 01:08:49;;;;;;;30.92;21.75;;;;;;;;;;2080262;28;20099;-84
2024/03/17 01:09:49;;;;;;;30.05;21.45;;;;;;;;;;2080699;28;20049;-85
2024/03/17 01:10:50;;;;;;;;;;;;;;;;;;2082339;28;20196;-85
2024/03/17 01:11:52;;;;;;;30.95;20.83;;;;;;;;;;2080062;28;20354;-84
2024/03/17 01:12:53;;;;;;;26.48;21.23;;;;;;;;;;2081303;28;20066;-84
2024/03/17 01:13:53;;;;;;;;;;;;;;;;;;2082495;28;20050;-84
2024/03/17 01:14:54;;;;;;;29.42;21.85;;;;;;;;;;2079785;28;19928;-84
2024/03/17 01:15:56;;;;;;;32.17;21.98;;;;;;;;;;2080043;28;20057;-85
2024/03/17 01:16:57;;;;;;;27.75;21.40;;;;;;;;;;2080794;28;20497;-84
2024/03/17 01:17:57;;;;;;;29.13;21.65;;;;;;;;;;2079908;28;20134;-84
2024/03/17 01:18:59;;;;;;;;;;;;;;;;;;2081091;28;20531;-84
2024/03/17 01:19:59;;;;;;;26.48;20.65;;;;;;;;;;2080975;28;19929;-85
2024/03/17 01:21:00;;;;;;;;;;;;;;;;;;2081790;28;20057;-84
2024/03/17 01:22:02;;;;;;;30.20;21.90;;;;;;;;;;2082738;28;20440;-84
2024/03/17 01:23:04;;;;;;;31.38;22.42;;;;;;;;;;2080803;28;20049;-85
2024/03/17 01:24:04;;;;;;;30.20;20.98;;;;;;;;;;2081316;28;20057;-84
2024/03/17 01:25:06;;;;;;;;;;;;;;;;;;2083198;28;20378;-84
2024/03/17 01:26:06;;;;;;;28.50;21.65;;;;;;;;;;2080312;28;19921;-84
2024/03/17 01:27:14;;;;;;;;;;;;;;;;;;2082224;28;20100;-85
2024/03/17 01:28:14;;;;;;;27.10;20.65;;;;;;;;;;2080761;28;19925;-85
2024/03/17 01:29:15;;;;;;;;;;;;;;;;;;2080892;28;20486;-84
2024/03/17 01:30:15;;;;;;;28.93;21.10;;;;;;;;;;2081242;28;19917;-84
2024/03/17 01:31:17;;;;;;;;;;;;;;;;;;2081332;28;20063;-84
2024/03/17 01:32:19;;;;;;;30.42;20.90;;;;;;;;;;2079722;28;20031;-84
2024/03/17 01:33:20;;;;;;;28.75;20.27;;;;;;;;;;2080959;28;20107;-84
2024/03/17 01:34:20;;;;;;;;;;;;;;;;;;2081718;28;20080;-85
2024/03/17 01:35:22;;;;;;;31.03;20.87;;;;;;;;;;2080294;28;20507;-84
2024/03/17 01:36:23;;;;;;;27.77;21.77;;;;;;;;;;2082552;28;20130;-84
2024/03/17 01:37:25;;;;;;;;;;;;;;;;;;2081827;28;20134;-84
2024/03/17 01:38:26;;;;;;;29.63;21.65;;;;;;;;;;2082622;28;19956;-84
2024/03/17 01:39:27;;;;;;;;;;;;;;;;;;2082454;28;20057;-85
2024/03/17 01:40:28;;;;;;;31.75;21.83;;;;;;;;;;2080130;28;19932;-85
2024/03/17 01:41:30;;;;;;;;;;;;;;;;;;2081965;28;20080;-85
2024/03/17 01:42:32;;;;;;;31.38;20.92;;;;;;;;;;2081265;28;19978;-85
2024/03/17 01:43:32;;;;;;;29.10;21.98;;;;;;;;;;2080532;28;20099;-85
2024/03/17 01:44:33;;;;;;;;;;;;;;;;;;2082471;28;20107;-84
2024/03/17 01:45:34;;;;;;;28.00;20.10;;;;;;;;;;2081740;28;19925;-84
2024/03/17 01:46:35;;;;;;;;;;;;;;;;;;2080573;28;20418;-84
2024/03/17 01:47:35;;;;;;;28.80;21.15;;;;;;;;;;2080618;28;19948;-84
2024/03/17 01:48:36;;;;;;;;;;;;;;;;;;2084090;28;20127;-85
2024/03/17 01:49:36;;;;;;;29.70;20.33;;;;;;;;;;2080974;28;19932;-84
2024/03/17 01:50:38;;;;;;;;;;;;;;;;;;2082775;28;20057;-84
2024/03/17 01:51:39;;;;;;;28.70;22.20;;;;;;;;;;2081630;28;20012;-83
2024/03/17 01:52:40;;;;;;;;;;;;;;;;;;2079980;28;20397;-84
2024/03/17 01:53:43;;;;;;;28.90;21.52;;;;;;;;;;2080293;28;19975;-85
2024/03/17 01:54:43;;;;;;;31.13;22.40;;;;;;;;;;2079912;28;20059;-84
2024/03/17 01:55:44;;;;;;;;;;;;;;;;;;2082641;28;20044;-85
2024/03/17 01:56:45;;;;;;;31.20;21.37;;;;;;;;;;2081331;28;19921;-84
2024/03/17 01:57:46;;;;;;;;;;;;;;;;;;2082121;28;20049;-84
2024/03/17 01:58:47;;;;;;;30.30;22.00;;;;;;;;;;2083485;28;19950;-84
2024/03/17 01:59:47;;;;;;;;;;;;;;;;;;2082017;28;20417;-84
2024/03/17 02:00:48;;;;;;;29.33;20.77;;;;;;;;;;2081328;28;19921;-84
2024/03/17 02:01:49;;;;;;;;;;;;;;;;;;2084390;28;20362;-84
2024/03/17 02:02:51;;;;;;;26.50;20.92;;;;;;;;;;2079537;28;19925;-85
2024/03/17 02:03:51;;;;;;;29.75;20.70;;;;;;;;;;2079773;28;20115;-84
2024/03/17 02:04:52;;;;;;;;;;;;;;;;;;2082199;28;20049;-85
2024/03/17 02:05:54;;;;;;;30.13;21.58;;;;;;;;;;2081207;28;19921;-84
2024/03/17 02:06:55;;;;;;;26.23;20.55;;;;;;;;;;2079270;28;20133;-84
2024/03/17 02:07:56;;;;;;;;;;;;;;;;;;2080191;28;20068;-85
2024/03/17 02:08:58;;;;;;;26.77;21.13;;;;;;;;;;2080932;28;20432;-84
2024/03/17 02:09:59;;;;;;;30.05;21.15;;;;;;;;;;2080663;28;20542;-84
2024/03/17 02:10:59;;;;;;;;;;;;;;;;;;2081593;28;20099;-84
2024/03/17 02:12:00;;;;;;;28.30;20.63;;;;;;;;;;2081140;28;20292;-84
2024/03/17 02:13:01;;;;;;;;;;;;;;;;;;2079959;28;20055;-84
2024/03/17 02:14:02;;;;;;;27.40;20.43;;;;;;;;;;2083316;28;19931;-83
2024/03/17 02:15:05;;;;;;;26.48;20.55;;;;;;;;;;2080535;28;20057;-84
2024/03/17 02:16:05;;;;;;;27.95;20.63;;;;;;;;;;2079753;28;20393;-84
2024/03/17 02:17:06;;;;;;;;;;;;;;;;;;2081595;28;20064;-84
2024/03/17 02:18:07;;;;;;;28.87;20.90;;;;;;;;;;2080721;28;19964;-84
2024/03/17 02:19:08;;;;;;;31.33;21.98;;;;;;;;;;2081027;28;20073;-84
2024/03/17 02:20:11;;;;;;;;;;;;;;;;;;2081933;28;20053;-84
2024/03/17 02:21:12;;;;;;;26.67;19.90;;;;;;;;;;2082296;28;19924;-84
2024/03/17 02:22:14;;;;;;;;;;;;;;;;;;2078031;28;20049;-84
2024/03/17 02:23:17;;;;;;;28.80;20.80;;;;;;;;;;2081047;28;19925;-85
2024/03/17 02:24:17;;;;;;;30.38;21.17;;;;;;;;;;2081216;28;20053;-85
2024/03/17 02:25:18;;;;;;;;;;;;;;;;;;2082505;28;20054;-85
2024/03/17 02:26:19;;;;;;;29.30;21.00;;;;;;;;;;2081139;28;19979;-85
2024/03/17 02:27:20;;;;;;;30.58;22.10;;;;;;;;;;2082534;28;20060;-84
2024/03/17 02:28:21;;;;;;;;;;;;;;;;;;2081425;28;20053;-84
2024/03/17 02:29:22;;;;;;;31.02;21.17;;;;;;;;;;2081037;28;19925;-85
2024/03/17 02:30:22;;;;;;;;;;;;;;;;;;2084079;28;20049;-84
2024/03/17 02:31:23;;;;;;;29.30;21.23;;;;;;;;;;2082203;28;19920;-84
2024/03/17 02:32:26;;;;;;;;;;;;;;;;;;2082052;28;20049;-85
2024/03/17 02:33:27;;;;;;;28.45;20.10;;;;;;;;;;2080407;28;19932;-85
2024/03/17 02:34:27;;;;;;;;;;;;;;;;;;2080639;28;20137;-84
2024/03/17 02:35:30;;;;;;;33.40;21.17;;;;;;;;;;2080446;28;20561;-85
2024/03/17 02:36:30;;;;;;;26.23;19.60;;;;;;;;;;2083000;28;20467;-84
2024/03/17 02:37:33;;;;;;;26.50;20.23;;;;;;;;;;2079905;28;20394;-85
2024/03/17 02:39:54;;;;;;;26.73;20.23;;;;;;;;;;2081550;28;20500;-85
2024/03/17 02:40:55;;;;;;;26.92;19.90;;;;;;;;;;2080889;28;20045;-85
2024/03/17 02:41:55;;;;;;;;;;;;;;;;;;2081482;28;20092;-85
2024/03/17 02:42:57;;;;;;;27.38;19.90;;;;;;;;;;2080194;28;19932;-84
2024/03/17 02:43:57;;;;;;;25.92;19.77;;;;;;;;;;2080047;28;20060;-85
2024/03/17 02:44:59;;;;;;;;;;;;;;;;;;2079617;28;20049;-85
2024/03/17 02:45:59;;;;;;;26.10;19.02;;;;;;;;;;2080782;28;19921;-85
2024/03/17 02:47:01;;;;;;;;;;;;;;;;;;2080526;28;20062;-84
2024/03/17 02:48:01;;;;;;;27.10;20.05;;;;;;;;;;2079459;28;19931;-85
2024/03/17 02:49:03;;;;;;;;;;;;;;;;;;2079798;28;20486;-85
2024/03/17 02:50:04;;;;;;;28.92;19.80;;;;;;;;;;2079185;28;20351;-85
2024/03/17 02:51:05;;;;;;;27.20;19.88;;;;;;;;;;2079869;28;20104;-85
2024/03/17 02:52:06;;;;;;;;;;;;;;;;;;2079822;28;20416;-84
2024/03/17 02:53:09;;;;;;;24.30;18.10;;;;;;;;;;2081652;28;19925;-84
2024/03/17 02:54:09;;;;;;;25.73;18.85;;;;;;;;;;2079844;28;20064;-85
2024/03/17 02:55:11;;;;;;;;;;;;;;;;;;2079498;28;20088;-85
2024/03/17 02:56:12;;;;;;;27.75;18.35;;;;;;;;;;2080873;28;20476;-85
2024/03/17 02:57:13;;;;;;;25.98;19.52;;;;;;;;;;2079888;28;20050;-85
2024/03/17 02:58:14;;;;;;;25.30;18.98;;;;;;;;;;2080887;28;20424;-84
2024/03/17 02:59:14;;;;;;;;;;;;;;;;;;2081349;28;20132;-85
2024/03/17 03:00:17;;;;;;;26.77;17.97;;;;;;;;;;2081802;28;19925;-85
2024/03/17 03:01:19;;;;;;;26.65;18.08;;;;;;;;;;2081873;28;20053;-85
2024/03/17 03:02:20;;;;;;;27.75;19.50;;;;;;;;;;2083388;28;20588;-84
2024/03/17 03:03:21;;;;;;;25.60;18.85;;;;;;;;;;2083034;28;20065;-84
2024/03/17 03:04:23;;;;;;;;;;;;;;;;;;2082195;28;20053;-84
2024/03/17 03:05:23;;;;;;;26.98;17.90;;;;;;;;;;2083659;28;19927;-84
2024/03/17 03:06:25;;;;;;;;;;;;;;;;;;2082204;28;20081;-85
2024/03/17 03:07:26;;;;;;;26.92;19.35;;;;;;;;;;2081628;28;19950;-85
2024/03/17 03:08:28;;;;;;;27.65;19.83;;;;;;;;;;2082264;28;20056;-85
2024/03/17 03:09:32;;;;;;;25.70;18.50;;;;;;;;;;2081798;28;20470;-84
2024/03/17 03:10:35;;;;;;;24.33;18.13;;;;;;;;;;2081837;28;20147;-84
2024/03/17 03:11:35;;;;;;;32.17;19.65;;;;;;;;;;2081112;28;20580;-84
2024/03/17 03:12:37;;;;;;;;;;;;;;;;;;2083081;28;20053;-84
2024/03/17 03:13:38;;;;;;;25.80;18.77;;;;;;;;;;2081349;28;19932;-85
2024/03/17 03:14:39;;;;;;;27.70;18.88;;;;;;;;;;2082425;28;20049;-85
2024/03/17 03:15:40;;;;;;;;;;;;;;;;;;2082781;28;20417;-84
2024/03/17 03:16:41;;;;;;;25.73;17.60;;;;;;;;;;2080787;28;19928;-84
2024/03/17 03:17:42;;;;;;;;;;;;;;;;;;2082889;28;20428;-85
2024/03/17 03:18:44;;;;;;;26.13;18.38;;;;;;;;;;2081832;28;19924;-84
2024/03/17 03:19:45;;;;;;;27.55;18.88;;;;;;;;;;2082424;28;20045;-84
2024/03/17 03:20:50;;;;;;;27.35;19.08;;;;;;;;;;2082613;28;20045;-84
2024/03/17 03:21:52;;;;;;;27.52;18.52;;;;;;;;;;2083246;28;20052;-84
2024/03/17 03:22:52;;;;;;;26.42;19.45;;;;;;;;;;2081915;28;20045;-84
2024/03/17 03:23:54;;;;;;;;;;;;;;;;;;2084876;28;20057;-84
2024/03/17 03:24:56;;;;;;;23.55;17.60;;;;;;;;;;2082537;28;19979;-84
2024/03/17 03:25:57;;;;;;;25.27;18.17;;;;;;;;;;2080002;28;20077;-85
2024/03/17 03:26:58;;;;;;;;;;;;;;;;;;2082128;28;20050;-84
2024/03/17 03:27:59;;;;;;;26.90;18.02;;;;;;;;;;2081611;28;20420;-84
2024/03/17 03:29:00;;;;;;;;;;;;;;;;;;2081684;28;20152;-85
2024/03/17 03:30:01;;;;;;;26.05;18.63;;;;;;;;;;2081726;28;19927;-84
2024/03/17 03:31:03;;;;;;;;;;;;;;;;;;2082438;28;20412;-85
2024/03/17 03:32:04;;;;;;;27.55;18.20;;;;;;;;;;2083707;28;19928;-84
2024/03/17 03:33:05;;;;;;;;;;;;;;;;;;2085072;28;20085;-84
2024/03/17 03:34:07;;;;;;;;;;;;;;;;;;2082301;28;19925;-84
2024/03/17 03:35:09;;;;;;;28.23;18.30;;;;;;;;;;2083253;28;19932;-84
2024/03/17 03:36:11;;;;;;;24.63;18.55;;;;;;;;;;2083992;28;20401;-84
2024/03/17 03:37:11;;;;;;;29.50;19.65;;;;;;;;;;2082874;28;20053;-84
2024/03/17 03:38:13;;;;;;;;;;;;;;;;;;2085052;28;20149;-83
2024/03/17 03:39:15;;;;;;;27.08;18.90;;;;;;;;;;2081910;28;20302;-83
2024/03/17 03:40:17;;;;;;;28.45;19.20;;;;;;;;;;2083154;28;20064;-84
2024/03/17 03:41:18;;;;;;;25.67;18.83;;;;;;;;;;2082052;28;20522;-85
2024/03/17 03:42:19;;;;;;;;;;;;;;;;;;2083297;28;20054;-85
2024/03/17 03:43:20;;;;;;;23.73;17.73;;;;;;;;;;2082196;28;19952;-84
2024/03/17 03:44:21;;;;;;;;;;;;;;;;;;2083071;28;20103;-84
2024/03/17 03:45:22;;;;;;;25.25;18.42;;;;;;;;;;2080199;28;19921;-85
2024/03/17 03:46:23;;;;;;;;;;;;;;;;;;2081666;28;20120;-85
2024/03/17 03:47:23;;;;;;;25.42;17.90;;;;;;;;;;2081447;28;19925;-84
2024/03/17 03:48:25;;;;;;;;;;;;;;;;;;2081550;28;20077;-84
2024/03/17 03:49:26;;;;;;;30.45;17.45;;;;;;;;;;2083754;28;19921;-84
2024/03/17 03:50:26;;;;;;;;;;;;;;;;;;2082630;28;20076;-84
2024/03/17 03:51:28;;;;;;;26.27;17.97;;;;;;;;;;2081785;28;20265;-85
2024/03/17 03:52:29;;;;;;;27.73;19.15;;;;;;;;;;2081034;28;20516;-84
2024/03/17 03:53:31;;;;;;;27.52;18.02;;;;;;;;;;2082304;28;20046;-83
2024/03/17 03:54:33;;;;;;;25.88;18.95;;;;;;;;;;2082675;28;20055;-85
2024/03/17 03:55:35;;;;;;;26.67;18.83;;;;;;;;;;2080557;28;20057;-85
2024/03/17 03:56:36;;;;;;;26.33;18.52;;;;;;;;;;2081957;28;20053;-84
2024/03/17 03:57:37;;;;;;;;;;;;;;;;;;2080853;28;20053;-84
2024/03/17 03:58:40;;;;;;;25.98;17.88;;;;;;;;;;2082451;28;19927;-85
2024/03/17 03:59:41;;;;;;;29.55;19.15;;;;;;;;;;2084047;28;20041;-84
2024/03/17 04:00:42;;;;;;;26.40;18.52;;;;;;;;;;2082160;28;20060;-85
2024/03/17 04:01:42;;;;;;;;;;;;;;;;;;2081435;28;20149;-84
2024/03/17 04:02:44;;;;;;;24.27;17.53;;;;;;;;;;2081513;28;19925;-85
2024/03/17 04:03:44;;;;;;;24.88;17.85;;;;;;;;;;2081627;28;20052;-85
2024/03/17 04:04:46;;;;;;;;;;;;;;;;;;2081229;28;20045;-84
2024/03/17 04:05:46;;;;;;;26.23;17.52;;;;;;;;;;2080360;28;19960;-85
2024/03/17 04:06:48;;;;;;;;;;;;;;;;;;2085461;28;20060;-85
2024/03/17 04:07:49;;;;;;;27.27;18.38;;;;;;;;;;2081119;28;19925;-84
2024/03/17 04:08:50;;;;;;;;;;;;;;;;;;2083168;28;20076;-85
2024/03/17 04:09:52;;;;;;;28.40;18.20;;;;;;;;;;2081420;28;19948;-84
2024/03/17 04:10:53;;;;;;;24.38;17.70;;;;;;;;;;2080403;28;20044;-85
2024/03/17 04:11:54;;;;;;;;;;;;;;;;;;2083306;28;20195;-85
2024/03/17 04:12:55;;;;;;;25.40;17.00;;;;;;;;;;2080450;28;19975;-84
2024/03/17 04:13:57;;;;;;;;;;;;;;;;;;2081189;28;20489;-85
2024/03/17 04:14:57;;;;;;;26.20;17.83;;;;;;;;;;2083221;28;19988;-84
2024/03/17 04:15:58;;;;;;;;;;;;;;;;;;2082129;28;20062;-85
2024/03/17 04:17:00;;;;;;;30.30;19.93;;;;;;;;;;2079781;28;19976;-84
2024/03/17 04:18:01;;;;;;;28.20;18.33;;;;;;;;;;2081603;28;20099;-84
2024/03/17 04:19:02;;;;;;;;;;;;;;;;;;2081486;28;20060;-84
2024/03/17 04:20:04;;;;;;;25.80;18.98;;;;;;;;;;2080914;28;19924;-84
2024/03/17 04:21:07;;;;;;;26.67;19.17;;;;;;;;;;2080739;28;20406;-84
2024/03/17 04:22:07;;;;;;;28.90;20.00;;;;;;;;;;2081491;28;20061;-84
2024/03/17 04:23:09;;;;;;;;;;;;;;;;;;2083212;28;20691;-84
2024/03/17 04:24:10;;;;;;;28.88;18.75;;;;;;;;;;2081007;28;19990;-84
2024/03/17 04:25:12;;;;;;;;;;;;;;;;;;2082516;28;20094;-84
2024/03/17 04:26:14;;;;;;;25.67;18.80;;;;;;;;;;2081697;28;19928;-85
2024/03/17 04:27:15;;;;;;;25.08;17.88;;;;;;;;;;2081577;28;20528;-84
2024/03/17 04:28:15;;;;;;;;;;;;;;;;;;2081729;28;20045;-84
2024/03/17 04:29:17;;;;;;;31.27;20.20;;;;;;;;;;2079911;28;20075;-84
2024/03/17 04:30:18;;;;;;;26.08;18.33;;;;;;;;;;2082713;28;20049;-84
2024/03/17 04:31:18;;;;;;;;;;;;;;;;;;2081749;28;20099;-85
2024/03/17 04:32:19;;;;;;;25.00;17.83;;;;;;;;;;2082239;28;21188;-84
2024/03/17 04:33:21;;;;;;;27.35;18.77;;;;;;;;;;2080869;28;20497;-84
2024/03/17 04:34:22;;;;;;;24.88;18.50;;;;;;;;;;2080447;28;20428;-84
2024/03/17 04:35:23;;;;;;;24.13;17.73;;;;;;;;;;2082202;28;20080;-85
2024/03/17 04:36:24;;;;;;;;;;;;;;;;;;2083024;28;20088;-84
2024/03/17 04:37:25;;;;;;;28.67;19.80;;;;;;;;;;2082502;28;19928;-85
2024/03/17 04:38:29;;;;;;;;;;;;;;;;;;2085174;28;20554;-85
2024/03/17 04:39:29;;;;;;;24.88;17.67;;;;;;;;;;2080569;28;20666;-85
2024/03/17 04:40:32;;;;;;;;;;;;;;;;;;2080465;28;20148;-84
2024/03/17 04:41:33;;;;;;;26.50;18.35;;;;;;;;;;2083773;28;19925;-84
2024/03/17 04:42:35;;;;;;;28.65;17.75;;;;;;;;;;2081285;28;20107;-83
2024/03/17 04:43:35;;;;;;;29.40;18.75;;;;;;;;;;2081647;28;20053;-84
2024/03/17 04:44:39;;;;;;;28.20;18.83;;;;;;;;;;2084205;28;20053;-84
2024/03/17 04:45:40;;;;;;;27.02;17.98;;;;;;;;;;2080977;28;20053;-84
2024/03/17 04:46:41;;;;;;;;;;;;;;;;;;2081447;28;20051;-84
2024/03/17 04:47:42;;;;;;;28.42;19.15;;;;;;;;;;2080680;28;19928;-84
2024/03/17 04:48:43;;;;;;;;;;;;;;;;;;2081444;28;20050;-84
2024/03/17 04:49:48;;;;;;;26.03;17.93;;;;;;;;;;2082012;28;20043;-84
2024/03/17 04:50:49;;;;;;;24.73;17.42;;;;;;;;;;2081274;28;20156;-83
2024/03/17 04:51:50;;;;;;;;;;;;;;;;;;2083278;28;20136;-84
2024/03/17 04:52:51;;;;;;;25.23;18.77;;;;;;;;;;2081889;28;19932;-84
2024/03/17 04:53:52;;;;;;;;;;;;;;;;;;2082134;28;20152;-84
2024/03/17 04:54:53;;;;;;;25.88;18.20;;;;;;;;;;2080757;28;19948;-83
2024/03/17 04:56:05;;;;;;;;;;;;;;;;;;2082682;28;20275;-84
2024/03/17 04:57:06;;;;;;;24.40;17.45;;;;;;;;;;2080561;28;19929;-84
2024/03/17 04:58:08;;;;;;;;;;;;;;;;;;2080479;28;20056;-84
2024/03/17 04:59:09;;;;;;;28.33;17.80;;;;;;;;;;2082467;28;20431;-84
2024/03/17 05:00:12;;;;;;;27.80;19.00;;;;;;;;;;2079791;28;20564;-84
2024/03/17 05:01:13;;;;;;;28.17;19.30;;;;;;;;;;2080085;28;20837;-85
2024/03/17 05:02:14;;;;;;;27.65;19.52;;;;;;;;;;2080430;28;20084;-85
2024/03/17 05:03:15;;;;;;;;;;;;;;;;;;2080528;28;20524;-85
2024/03/17 05:04:17;;;;;;;31.10;19.50;;;;;;;;;;2082218;28;19975;-84
2024/03/17 05:05:20;;;;;;;26.95;18.35;;;;;;;;;;2079700;28;20057;-85
2024/03/17 05:06:21;;;;;;;28.23;19.30;;;;;;;;;;2081028;28;20509;-84
2024/03/17 05:07:22;;;;;;;;;;;;;;;;;;2080433;28;20156;-85
2024/03/17 05:08:23;;;;;;;23.92;17.67;;;;;;;;;;2081483;28;19925;-85
2024/03/17 05:09:24;;;;;;;;;;;;;;;;;;2082629;28;20053;-85
2024/03/17 05:10:25;;;;;;;25.27;18.73;;;;;;;;;;2080902;28;19959;-85
2024/03/17 05:11:27;;;;;;;26.85;19.10;;;;;;;;;;2082412;28;20075;-84
2024/03/17 05:12:29;;;;;;;26.42;18.30;;;;;;;;;;2081850;28;20087;-85
2024/03/17 05:13:33;;;;;;;24.83;18.83;;;;;;;;;;2082567;28;20074;-85
2024/03/17 05:14:35;;;;;;;25.73;18.52;;;;;;;;;;2079392;28;20511;-86
2024/03/17 05:15:37;;;;;;;24.20;17.80;;;;;;;;;;2080912;28;20045;-85
2024/03/17 05:16:38;;;;;;;27.65;18.40;;;;;;;;;;2080399;28;20057;-84
2024/03/17 05:17:39;;;;;;;;;;;;;;;;;;2082582;28;20084;-84
2024/03/17 05:18:40;;;;;;;29.48;18.02;;;;;;;;;;2082654;28;19951;-84
2024/03/17 05:19:42;;;;;;;;;;;;;;;;;;2082698;28;20056;-84
2024/03/17 05:20:42;;;;;;;;;;;;;;;;;;2081886;28;20028;-83
2024/03/17 05:21:43;;;;;;;27.67;18.17;;;;;;;;;;2081879;28;19924;-84
2024/03/17 05:22:46;;;;;;;;;;;;;;;;;;2081598;28;20048;-84
2024/03/17 05:23:47;;;;;;;26.70;18.52;;;;;;;;;;2081298;28;20028;-84
2024/03/17 05:24:48;;;;;;;;;;;;;;;;;;2080409;28;20053;-84
2024/03/17 05:25:51;;;;;;;27.55;17.75;;;;;;;;;;2079718;28;19932;-83
2024/03/17 05:26:54;;;;;;;30.40;18.45;;;;;;;;;;2079929;28;20605;-83
2024/03/17 05:27:55;;;;;;;26.42;18.15;;;;;;;;;;2081225;28;20056;-84
2024/03/17 05:28:56;;;;;;;;;;;;;;;;;;2080068;28;20069;-84
2024/03/17 05:29:57;;;;;;;26.65;18.40;;;;;;;;;;2081695;28;20016;-84
2024/03/17 05:30:58;;;;;;;;;;;;;;;;;;2081029;28;20057;-84
2024/03/17 05:31:59;;;;;;;26.13;18.33;;;;;;;;;;2080776;28;19925;-84
2024/03/17 05:33:00;;;;;;;;;;;;;;;;;;2082536;28;20120;-84
2024/03/17 05:34:01;;;;;;;24.77;18.08;;;;;;;;;;2081209;28;20340;-83
2024/03/17 05:35:01;;;;;;;;;;;;;;;;;;2081698;28;20061;-83
2024/03/17 05:36:04;;;;;;;25.40;17.97;;;;;;;;;;2081025;28;20292;-84
2024/03/17 05:37:05;;;;;;;25.85;18.70;;;;;;;;;;2079788;28;20076;-84
2024/03/17 05:38:10;;;;;;;;;;;;;;;;;;2081580;28;20083;-84
2024/03/17 05:39:10;;;;;;;24.67;17.08;;;;;;;;;;2080733;28;19986;-84
2024/03/17 05:40:13;;;;;;;;;;;;;;;;;;2081513;28;20118;-84
2024/03/17 05:41:14;;;;;;;28.45;18.52;;;;;;;;;;2079849;28;19929;-84
2024/03/17 05:42:17;;;;;;;30.42;18.95;;;;;;;;;;2081959;28;20140;-84
2024/03/17 05:43:17;;;;;;;29.27;19.50;;;;;;;;;;2081431;28;20049;-85
2024/03/17 05:44:18;;;;;;;;;;;;;;;;;;2082851;28;20061;-84
2024/03/17 05:45:19;;;;;;;24.73;17.27;;;;;;;;;;2079980;28;20269;-84
2024/03/17 05:46:20;;;;;;;28.30;19.38;;;;;;;;;;2079774;28;20056;-84
2024/03/17 05:47:22;;;;;;;;;;;;;;;;;;2084095;28;20481;-84
2024/03/17 05:48:24;;;;;;;27.77;18.60;;;;;;;;;;2080688;28;19921;-85
2024/03/17 05:49:25;;;;;;;25.20;18.63;;;;;;;;;;2079297;28;20045;-84
2024/03/17 05:50:27;;;;;;;28.38;18.83;;;;;;;;;;2082896;28;20053;-85
2024/03/17 05:51:28;;;;;;;26.90;18.92;;;;;;;;;;2081162;28;20053;-85
2024/03/17 05:52:29;;;;;;;29.27;19.25;;;;;;;;;;2079273;28;20037;-85
2024/03/17 05:53:31;;;;;;;;;;;;;;;;;;2081900;28;20065;-85
2024/03/17 05:54:32;;;;;;;25.60;17.55;;;;;;;;;;2081836;28;20629;-85
2024/03/17 05:55:35;;;;;;;;;;;;;;;;;;2081120;28;20077;-84
2024/03/17 05:56:36;;;;;;;23.52;17.38;;;;;;;;;;2078818;28;19929;-84
2024/03/17 05:57:39;;;;;;;;;;;;;;;;;;2081512;28;20467;-84
2024/03/17 05:58:39;;;;;;;22.77;17.45;;;;;;;;;;2080181;28;19925;-84
2024/03/17 05:59:41;;;;;;;;;;;;;;;;;;2082439;28;20124;-84
2024/03/17 06:00:42;;;;;;;25.55;16.70;;;;;;;;;;2080125;28;19925;-84
2024/03/17 06:01:43;;;;;;;;;;;;;;;;;;2081866;28;20504;-84
2024/03/17 06:02:44;;;;;;;23.27;16.73;;;;;;;;;;2080592;28;19975;-83
2024/03/17 06:03:44;;;;;;;;;;;;;;;;;;2081384;28;20054;-84
2024/03/17 06:04:46;;;;;;;27.30;17.10;;;;;;;;;;2081237;28;19921;-84
2024/03/17 06:05:47;;;;;;;25.92;18.30;;;;;;;;;;2080195;28;20064;-84
2024/03/17 06:06:48;;;;;;;;;;;;;;;;;;2082062;28;20053;-84
2024/03/17 06:07:49;;;;;;;24.67;16.88;;;;;;;;;;2081627;28;19925;-84
2024/03/17 06:08:51;;;;;;;;;;;;;;;;;;2079961;28;20073;-85
2024/03/17 06:09:51;;;;;;;23.23;16.20;;;;;;;;;;2081897;28;19999;-85
2024/03/17 06:10:53;;;;;;;;;;;;;;;;;;2082048;28;20057;-85
2024/03/17 06:11:53;;;;;;;22.05;15.05;;;;;;;;;;2081616;28;19925;-85
2024/03/17 06:12:56;;;;;;;;;;;;;;;;;;2082187;28;20099;-85
2024/03/17 06:13:57;;;;;;;23.73;15.55;;;;;;;;;;2081901;28;19929;-84
2024/03/17 06:14:59;;;;;;;;;;;;;;;;;;2082708;28;20065;-84
2024/03/17 06:16:02;;;;;;;22.33;15.77;;;;;;;;;;2076239;28;19928;-84
2024/03/17 06:17:04;;;;;;;22.75;15.02;;;;;;;;;;2080774;28;20138;-84